createdAt,value
2022-11-28T00:01:27.128Z,61.08
2022-11-28T00:03:54.146Z,61.13
2022-11-28T00:06:21.517Z,61.31
2022-11-28T00:08:48.801Z,61.13
2022-11-28T00:11:17.744Z,61.05
2022-11-28T00:13:45.692Z,61.26
2022-11-28T00:16:23.951Z,61.12
2022-11-28T00:18:53.672Z,61.38
2022-11-28T00:21:21.010Z,61.37
2022-11-28T00:23:49.164Z,61.18
2022-11-28T00:26:21.011Z,61.32
2022-11-28T00:28:48.363Z,61.24
2022-11-28T00:31:18.192Z,61.36
2022-11-28T00:33:45.871Z,61.37
2022-11-28T00:36:13.684Z,61.54
2022-11-28T00:38:40.848Z,61.36
2022-11-28T00:41:14.423Z,61.47
2022-11-28T00:43:43.020Z,61.36
2022-11-28T00:46:10.918Z,61.63
2022-11-28T00:48:38.046Z,61.52
2022-11-28T00:51:13.075Z,61.57
2022-11-28T00:53:42.767Z,61.58
2022-11-28T00:56:14.878Z,61.86
2022-11-28T00:58:42.655Z,61.67
2022-11-28T01:01:09.591Z,61.76
2022-11-28T01:03:37.038Z,62.04
2022-11-28T01:06:04.845Z,62.19
2022-11-28T01:08:31.795Z,61.97
2022-11-28T01:10:58.829Z,62.10
2022-11-28T01:13:25.715Z,62.16
2022-11-28T01:15:52.802Z,62.23
2022-11-28T01:18:19.632Z,62.26
2022-11-28T01:20:46.426Z,62.31
2022-11-28T01:23:13.224Z,62.28
2022-11-28T01:25:40.070Z,62.14
2022-11-28T01:28:07.017Z,62.08
2022-11-28T01:30:34.266Z,62.41
2022-11-28T01:33:01.145Z,62.25
2022-11-28T01:35:29.085Z,62.25
2022-11-28T01:37:55.932Z,62.18
2022-11-28T01:40:22.870Z,62.24
2022-11-28T01:42:49.727Z,62.37
2022-11-28T01:45:23.774Z,62.54
2022-11-28T01:47:53.917Z,62.54
2022-11-28T01:50:22.694Z,62.55
2022-11-28T01:52:53.751Z,62.54
2022-11-28T01:55:24.736Z,62.33
2022-11-28T01:57:54.428Z,62.59
2022-11-28T02:00:22.178Z,62.60
2022-11-28T02:02:53.094Z,62.65
2022-11-28T02:05:21.422Z,62.47
2022-11-28T02:07:50.177Z,62.70
2022-11-28T02:10:44.173Z,62.79
2022-11-28T02:13:24.174Z,62.85
2022-11-28T02:16:05.022Z,62.86
2022-11-28T02:18:57.450Z,62.81
2022-11-28T02:21:47.585Z,62.81
2022-11-28T02:24:33.022Z,63.13
2022-11-28T02:27:14.951Z,63.04
2022-11-28T02:29:51.647Z,62.89
2022-11-28T02:32:30.166Z,62.94
2022-11-28T02:35:31.551Z,63.20
2022-11-28T02:38:01.267Z,63.30
2022-11-28T02:40:30.776Z,63.25
2022-11-28T02:43:15.645Z,63.05
2022-11-28T02:46:26.083Z,63.23
2022-11-28T02:49:03.405Z,63.31
2022-11-28T02:51:39.511Z,63.09
2022-11-28T02:54:10.666Z,63.36
2022-11-28T02:56:38.067Z,63.19
2022-11-28T02:59:05.618Z,63.05
2022-11-28T03:01:38.644Z,63.45
2022-11-28T03:04:05.473Z,63.25
2022-11-28T03:06:38.660Z,63.62
2022-11-28T03:09:30.125Z,63.42
2022-11-28T03:11:59.906Z,63.63
2022-11-28T03:14:51.042Z,63.66
2022-11-28T03:17:36.948Z,63.67
2022-11-28T03:20:37.831Z,63.54
2022-11-28T03:23:21.379Z,63.66
2022-11-28T03:26:07.594Z,64.07
2022-11-28T03:28:43.597Z,63.88
2022-11-28T03:31:31.855Z,63.67
2022-11-28T03:34:01.109Z,63.99
2022-11-28T03:36:33.307Z,63.69
2022-11-28T03:39:06.840Z,63.76
2022-11-28T03:41:38.865Z,63.87
2022-11-28T03:44:11.040Z,63.82
2022-11-28T03:46:44.921Z,63.80
2022-11-28T03:49:13.828Z,63.81
2022-11-28T03:51:50.139Z,64.07
2022-11-28T03:54:25.209Z,63.83
2022-11-28T03:57:01.042Z,64.00
2022-11-28T03:59:37.888Z,64.15
2022-11-28T04:02:15.606Z,64.04
2022-11-28T04:04:45.380Z,63.95
2022-11-28T04:07:33.744Z,64.00
2022-11-28T04:10:04.334Z,63.69
2022-11-28T04:12:59.565Z,63.97
2022-11-28T04:15:39.802Z,63.81
2022-11-28T04:18:20.191Z,63.77
2022-11-28T04:20:51.674Z,63.91
2022-11-28T04:23:21.987Z,63.78
2022-11-28T04:25:59.656Z,63.89
2022-11-28T04:28:30.638Z,63.70
2022-11-28T04:30:59.793Z,63.70
2022-11-28T04:33:32.195Z,63.77
2022-11-28T04:36:00.395Z,63.85
2022-11-28T04:38:29.935Z,63.60
2022-11-28T04:41:12.729Z,63.77
2022-11-28T04:43:50.224Z,63.83
2022-11-28T04:46:22.031Z,63.61
2022-11-28T04:48:48.956Z,63.76
2022-11-28T04:51:32.860Z,63.59
2022-11-28T04:54:09.644Z,63.81
2022-11-28T04:56:46.191Z,63.75
2022-11-28T04:59:15.006Z,63.55
2022-11-28T05:01:44.691Z,63.51
2022-11-28T05:04:12.731Z,63.49
2022-11-28T05:06:39.723Z,63.60
2022-11-28T05:09:06.845Z,63.42
2022-11-28T05:11:33.693Z,63.30
2022-11-28T05:14:00.557Z,63.64
2022-11-28T05:16:27.462Z,63.42
2022-11-28T05:18:54.359Z,63.57
2022-11-28T05:21:21.243Z,63.71
2022-11-28T05:23:48.485Z,63.69
2022-11-28T05:26:18.698Z,63.63
2022-11-28T05:28:47.346Z,63.55
2022-11-28T05:31:14.980Z,63.43
2022-11-28T05:33:41.944Z,63.49
2022-11-28T05:36:14.029Z,63.60
2022-11-28T05:38:41.891Z,63.44
2022-11-28T05:41:09.140Z,62.98
2022-11-28T05:43:36.286Z,63.32
2022-11-28T05:46:06.767Z,63.61
2022-11-28T05:48:33.671Z,63.76
2022-11-28T05:51:00.703Z,63.83
2022-11-28T05:53:27.602Z,63.85
2022-11-28T05:55:54.553Z,63.55
2022-11-28T05:58:21.388Z,63.42
2022-11-28T06:00:48.353Z,63.56
2022-11-28T06:03:15.397Z,63.34
2022-11-28T06:05:44.219Z,63.83
2022-11-28T06:08:12.940Z,63.50
2022-11-28T06:10:40.253Z,63.67
2022-11-28T06:13:07.144Z,63.81
2022-11-28T06:15:37.853Z,63.55
2022-11-28T06:18:05.432Z,63.65
2022-11-28T06:20:32.273Z,63.51
2022-11-28T06:22:59.307Z,63.08
2022-11-28T06:25:26.216Z,62.84
2022-11-28T06:27:53.045Z,63.02
2022-11-28T06:30:19.932Z,63.53
2022-11-28T06:32:46.744Z,63.46
2022-11-28T06:35:13.647Z,63.47
2022-11-28T06:37:40.478Z,63.67
2022-11-28T06:40:07.922Z,63.95
2022-11-28T06:42:36.788Z,63.57
2022-11-28T06:45:05.352Z,63.21
2022-11-28T06:47:32.462Z,63.21
2022-11-28T06:49:59.297Z,63.21
2022-11-28T06:52:26.707Z,63.30
2022-11-28T06:54:53.574Z,63.47
2022-11-28T06:57:20.421Z,63.41
2022-11-28T06:59:49.093Z,63.48
2022-11-28T07:02:15.921Z,63.71
2022-11-28T07:04:42.810Z,63.49
2022-11-28T07:07:13.708Z,63.35
2022-11-28T07:09:43.259Z,63.43
2022-11-28T07:12:10.342Z,63.44
2022-11-28T07:14:37.252Z,63.40
2022-11-28T07:17:04.238Z,63.29
2022-11-28T07:19:31.219Z,63.30
2022-11-28T07:21:58.075Z,63.56
2022-11-28T07:24:24.972Z,63.46
2022-11-28T07:26:51.900Z,63.32
2022-11-28T07:29:19.499Z,63.18
2022-11-28T07:31:46.445Z,63.12
2022-11-28T07:34:13.592Z,63.49
2022-11-28T07:36:40.645Z,63.32
2022-11-28T07:39:08.995Z,63.34
2022-11-28T07:41:36.191Z,63.35
2022-11-28T07:44:04.502Z,63.16
2022-11-28T07:46:33.448Z,63.42
2022-11-28T07:49:01.701Z,63.40
2022-11-28T07:51:32.183Z,63.32
2022-11-28T07:54:00.314Z,63.29
2022-11-28T07:56:50.267Z,63.10
2022-11-28T07:59:17.754Z,63.15
2022-11-28T08:01:44.817Z,63.14
2022-11-28T08:04:11.888Z,63.11
2022-11-28T08:06:41.310Z,62.96
2022-11-28T08:09:09.352Z,62.95
2022-11-28T08:11:36.435Z,62.96
2022-11-28T08:14:03.751Z,62.71
2022-11-28T08:16:31.149Z,62.73
2022-11-28T08:19:01.626Z,62.73
2022-11-28T08:21:31.961Z,62.69
2022-11-28T08:24:01.910Z,62.49
2022-11-28T08:26:30.941Z,62.06
2022-11-28T08:28:59.089Z,62.54
2022-11-28T08:31:35.090Z,62.67
2022-11-28T08:34:06.098Z,62.67
2022-11-28T08:36:33.660Z,62.27
2022-11-28T08:39:23.827Z,62.42
2022-11-28T08:41:48.749Z,62.50
2022-11-28T08:44:16.492Z,62.55
2022-11-28T08:46:44.001Z,62.72
2022-11-28T08:49:11.752Z,62.59
2022-11-28T08:51:38.690Z,62.65
2022-11-28T08:54:05.786Z,62.32
2022-11-28T08:56:32.741Z,62.49
2022-11-28T08:59:00.645Z,62.36
2022-11-28T09:01:28.047Z,62.12
2022-11-28T09:03:56.397Z,62.08
2022-11-28T09:06:24.360Z,62.51
2022-11-28T09:08:54.321Z,62.45
2022-11-28T09:11:22.999Z,62.47
2022-11-28T09:13:50.805Z,62.67
2022-11-28T09:16:18.189Z,62.46
2022-11-28T09:18:45.634Z,62.25
2022-11-28T09:21:15.112Z,62.24
2022-11-28T09:23:43.933Z,62.36
2022-11-28T09:26:20.197Z,62.38
2022-11-28T09:28:47.573Z,62.18
2022-11-28T09:31:16.176Z,62.31
2022-11-28T09:33:45.119Z,62.17
2022-11-28T09:36:15.105Z,62.38
2022-11-28T09:38:42.207Z,62.60
2022-11-28T09:41:21.289Z,62.42
2022-11-28T09:43:54.669Z,62.30
2022-11-28T09:46:29.424Z,62.43
2022-11-28T09:49:03.204Z,62.32
2022-11-28T09:51:48.292Z,62.35
2022-11-28T09:54:26.300Z,62.27
2022-11-28T09:56:53.404Z,62.45
2022-11-28T09:59:26.105Z,62.38
2022-11-28T10:02:19.248Z,62.16
2022-11-28T10:05:19.179Z,62.51
2022-11-28T10:07:54.650Z,62.20
2022-11-28T10:10:27.881Z,62.33
2022-11-28T10:13:18.318Z,62.38
2022-11-28T10:16:00.422Z,62.52
2022-11-28T10:18:27.568Z,62.62
2022-11-28T10:21:01.855Z,62.58
2022-11-28T10:23:47.555Z,62.49
2022-11-28T10:26:24.903Z,62.65
2022-11-28T10:28:56.492Z,62.56
2022-11-28T10:31:36.762Z,58.69
2022-11-28T10:34:31.768Z,58.56
2022-11-28T10:37:14.695Z,60.10
2022-11-28T10:39:46.224Z,61.16
2022-11-28T10:42:35.843Z,61.73
2022-11-28T10:45:18.591Z,58.51
2022-11-28T10:48:38.611Z,57.92
2022-11-28T10:51:18.233Z,58.24
2022-11-28T10:53:57.139Z,58.51
2022-11-28T10:56:32.761Z,59.88
2022-11-28T10:59:25.989Z,61.27
2022-11-28T11:01:53.635Z,61.56
2022-11-28T11:04:26.889Z,61.57
2022-11-28T11:07:17.666Z,61.17
2022-11-28T11:09:47.344Z,61.40
2022-11-28T11:12:40.743Z,61.83
2022-11-28T11:15:32.825Z,61.84
2022-11-28T11:18:21.016Z,61.82
2022-11-28T11:20:48.054Z,61.87
2022-11-28T11:23:20.822Z,62.12
2022-11-28T11:25:50.352Z,62.33
2022-11-28T11:28:48.464Z,62.24
2022-11-28T11:31:22.768Z,62.37
2022-11-28T11:34:02.643Z,62.54
2022-11-28T11:36:33.077Z,62.38
2022-11-28T11:39:15.145Z,62.53
2022-11-28T11:41:45.350Z,62.22
2022-11-28T11:44:15.401Z,62.04
2022-11-28T11:46:52.713Z,62.00
2022-11-28T11:49:36.456Z,61.82
2022-11-28T11:52:13.177Z,61.80
2022-11-28T11:54:55.536Z,61.81
2022-11-28T11:57:34.736Z,61.70
2022-11-28T12:00:22.432Z,61.67
2022-11-28T12:02:54.599Z,61.70
2022-11-28T12:06:13.377Z,61.57
2022-11-28T12:08:51.735Z,61.45
2022-11-28T12:11:29.768Z,61.69
2022-11-28T12:14:03.715Z,61.45
2022-11-28T12:16:39.426Z,61.22
2022-11-28T12:19:44.602Z,61.37
2022-11-28T12:22:18.999Z,61.14
2022-11-28T12:25:19.679Z,61.29
2022-11-28T12:27:52.590Z,61.16
2022-11-28T12:30:33.901Z,61.02
2022-11-28T12:33:19.441Z,60.88
2022-11-28T12:36:08.827Z,60.59
2022-11-28T12:38:41.471Z,60.59
2022-11-28T12:41:32.768Z,60.44
2022-11-28T12:43:59.914Z,60.09
2022-11-28T12:46:51.587Z,59.82
2022-11-28T12:49:20.982Z,59.75
2022-11-28T12:52:21.611Z,59.46
2022-11-28T12:55:06.482Z,59.25
2022-11-28T12:57:45.117Z,58.87
2022-11-28T13:00:20.116Z,58.88
2022-11-28T13:03:07.075Z,59.29
2022-11-28T13:06:11.362Z,59.45
2022-11-28T13:08:50.359Z,59.36
2022-11-28T13:11:45.023Z,59.03
2022-11-28T13:14:39.616Z,58.99
2022-11-28T13:17:45.078Z,58.75
2022-11-28T13:20:22.189Z,58.71
2022-11-28T13:22:54.384Z,58.70
2022-11-28T13:25:51.627Z,58.47
2022-11-28T13:28:41.259Z,58.59
2022-11-28T13:31:13.221Z,58.46
2022-11-28T13:33:53.652Z,58.35
2022-11-28T13:39:42.482Z,58.24
2022-11-28T13:45:32.729Z,58.16
2022-11-28T13:48:01.190Z,57.95
2022-11-28T13:50:38.788Z,57.82
2022-11-28T13:53:10.474Z,57.86
2022-11-28T13:55:52.405Z,57.95
2022-11-28T13:58:29.957Z,58.26
2022-11-28T14:01:09.224Z,58.10
2022-11-28T14:03:51.203Z,58.58
2022-11-28T14:06:24.740Z,58.46
2022-11-28T14:09:19.359Z,58.29
2022-11-28T14:12:08.106Z,58.22
2022-11-28T14:14:59.983Z,57.90
2022-11-28T14:17:47.844Z,57.65
2022-11-28T14:20:17.734Z,57.63
2022-11-28T14:23:03.101Z,57.77
2022-11-28T14:25:40.362Z,58.00
2022-11-28T14:28:27.710Z,57.85
2022-11-28T14:31:13.580Z,56.90
2022-11-28T14:33:42.915Z,57.76
2022-11-28T14:36:34.245Z,57.80
2022-11-28T14:39:16.450Z,57.97
2022-11-28T14:42:05.061Z,58.21
2022-11-28T14:45:06.452Z,58.44
2022-11-28T14:47:39.791Z,58.28
2022-11-28T14:50:09.760Z,57.94
2022-11-28T14:52:42.022Z,57.90
2022-11-28T14:55:11.918Z,57.91
2022-11-28T14:57:57.566Z,57.84
2022-11-28T15:00:49.648Z,58.16
2022-11-28T15:03:45.939Z,58.28
2022-11-28T15:06:29.057Z,58.36
2022-11-28T15:09:15.559Z,58.41
2022-11-28T15:11:45.448Z,58.24
2022-11-28T15:14:19.364Z,58.27
2022-11-28T15:16:50.905Z,58.34
2022-11-28T15:19:26.411Z,58.27
2022-11-28T15:21:55.559Z,58.34
2022-11-28T15:24:28.791Z,58.65
2022-11-28T15:27:17.892Z,58.81
2022-11-28T15:29:54.556Z,59.04
2022-11-28T15:32:22.054Z,59.03
2022-11-28T15:35:01.343Z,58.97
2022-11-28T15:37:33.530Z,59.25
2022-11-28T15:40:06.433Z,59.16
2022-11-28T15:42:36.312Z,59.27
2022-11-28T15:45:09.016Z,59.59
2022-11-28T15:47:36.261Z,59.62
2022-11-28T15:50:16.375Z,59.79
2022-11-28T15:53:15.873Z,59.49
2022-11-28T15:55:43.664Z,59.72
2022-11-28T15:58:25.798Z,59.57
2022-11-28T16:01:00.349Z,59.55
2022-11-28T16:03:33.321Z,59.60
2022-11-28T16:06:00.738Z,59.63
2022-11-28T16:08:37.309Z,59.71
2022-11-28T16:11:07.635Z,59.54
2022-11-28T16:13:35.458Z,59.74
2022-11-28T16:16:04.576Z,59.70
2022-11-28T16:18:32.149Z,59.68
2022-11-28T16:21:01.383Z,59.59
2022-11-28T16:23:32.928Z,59.59
2022-11-28T16:26:21.734Z,59.49
2022-11-28T16:29:03.838Z,59.53
2022-11-28T16:31:31.164Z,59.37
2022-11-28T16:33:59.401Z,59.43
2022-11-28T16:36:53.428Z,59.04
2022-11-28T16:39:20.954Z,59.03
2022-11-28T16:42:07.136Z,59.15
2022-11-28T16:44:34.903Z,59.00
2022-11-28T16:47:02.512Z,59.07
2022-11-28T16:49:35.538Z,58.88
2022-11-28T16:52:15.774Z,58.95
2022-11-28T16:54:42.984Z,59.04
2022-11-28T16:57:17.659Z,58.81
2022-11-28T16:59:45.278Z,59.02
2022-11-28T17:02:25.074Z,58.77
2022-11-28T17:04:53.747Z,58.76
2022-11-28T17:07:23.849Z,58.81
2022-11-28T17:09:52.836Z,58.72
2022-11-28T17:12:29.898Z,58.75
2022-11-28T17:14:58.799Z,58.77
2022-11-28T17:17:26.306Z,58.47
2022-11-28T17:19:53.511Z,58.61
2022-11-28T17:22:24.648Z,58.73
2022-11-28T17:24:56.578Z,58.69
2022-11-28T17:27:23.759Z,58.86
2022-11-28T17:29:50.652Z,58.23
2022-11-28T17:32:17.621Z,58.54
2022-11-28T17:34:46.400Z,58.35
2022-11-28T17:37:13.554Z,58.39
2022-11-28T17:40:00.757Z,58.68
2022-11-28T17:42:27.767Z,58.57
2022-11-28T17:44:54.685Z,58.77
2022-11-28T17:47:21.980Z,58.89
2022-11-28T17:49:49.107Z,59.08
2022-11-28T17:52:16.815Z,59.37
2022-11-28T17:54:43.745Z,58.30
2022-11-28T17:57:10.682Z,58.15
2022-11-28T17:59:38.023Z,58.45
2022-11-28T18:02:05.288Z,58.56
2022-11-28T18:04:34.956Z,58.59
2022-11-28T18:07:02.068Z,57.97
2022-11-28T18:09:29.605Z,57.73
2022-11-28T18:11:56.778Z,58.69
2022-11-28T18:14:24.082Z,58.58
2022-11-28T18:16:51.376Z,58.98
2022-11-28T18:19:18.322Z,58.77
2022-11-28T18:21:45.279Z,58.72
2022-11-28T18:24:12.886Z,58.74
2022-11-28T18:26:40.177Z,58.63
2022-11-28T18:29:09.877Z,58.70
2022-11-28T18:31:37.156Z,58.75
2022-11-28T18:34:07.236Z,58.50
2022-11-28T18:36:36.434Z,58.82
2022-11-28T18:39:06.342Z,58.59
2022-11-28T18:41:33.470Z,58.70
2022-11-28T18:44:07.002Z,58.72
2022-11-28T18:46:35.424Z,58.66
2022-11-28T18:49:02.426Z,58.69
2022-11-28T18:51:32.313Z,58.42
2022-11-28T18:53:59.489Z,58.69
2022-11-28T18:56:27.502Z,58.50
2022-11-28T18:58:57.528Z,58.51
2022-11-28T19:01:30.833Z,58.40
2022-11-28T19:04:03.960Z,58.63
2022-11-28T19:06:31.960Z,58.17
2022-11-28T19:09:02.002Z,58.22
2022-11-28T19:11:29.883Z,57.97
2022-11-28T19:13:57.612Z,57.95
2022-11-28T19:16:30.613Z,57.92
2022-11-28T19:18:59.170Z,57.67
2022-11-28T19:21:29.465Z,57.69
2022-11-28T19:23:57.480Z,57.75
2022-11-28T19:26:27.020Z,57.75
2022-11-28T19:28:55.071Z,57.97
2022-11-28T19:31:27.647Z,57.94
2022-11-28T19:34:02.108Z,57.89
2022-11-28T19:36:31.553Z,58.04
2022-11-28T19:38:59.971Z,58.15
2022-11-28T19:41:28.924Z,58.04
2022-11-28T19:43:56.631Z,58.20
2022-11-28T19:46:24.249Z,58.11
2022-11-28T19:48:52.086Z,58.21
2022-11-28T19:51:20.402Z,58.35
2022-11-28T19:53:48.397Z,58.00
2022-11-28T19:56:18.662Z,58.29
2022-11-28T19:58:46.833Z,58.28
2022-11-28T20:01:16.749Z,58.23
2022-11-28T20:03:44.143Z,58.25
2022-11-28T20:06:14.688Z,58.00
2022-11-28T20:08:42.174Z,56.15
2022-11-28T20:11:14.927Z,57.31
2022-11-28T20:13:42.735Z,57.60
2022-11-28T20:16:12.242Z,57.80
2022-11-28T20:18:40.827Z,57.79
2022-11-28T20:21:11.340Z,57.77
2022-11-28T20:23:47.489Z,57.76
2022-11-28T20:26:15.348Z,57.71
2022-11-28T20:28:43.620Z,57.65
2022-11-28T20:31:34.142Z,57.54
2022-11-28T20:34:03.446Z,57.43
2022-11-28T20:36:32.126Z,57.46
2022-11-28T20:38:59.718Z,57.39
2022-11-28T20:41:28.284Z,57.38
2022-11-28T20:43:55.897Z,57.43
2022-11-28T20:46:27.548Z,57.30
2022-11-28T20:48:56.701Z,57.44
2022-11-28T20:51:25.435Z,57.36
2022-11-28T20:53:54.271Z,57.36
2022-11-28T20:56:24.585Z,57.26
2022-11-28T20:58:53.218Z,57.41
2022-11-28T21:01:23.136Z,57.51
2022-11-28T21:03:50.968Z,57.44
2022-11-28T21:06:19.165Z,57.30
2022-11-28T21:08:46.691Z,57.33
2022-11-28T21:11:36.958Z,57.10
2022-11-28T21:14:07.115Z,56.99
2022-11-28T21:16:35.063Z,56.93
2022-11-28T21:19:09.280Z,56.99
2022-11-28T21:21:39.787Z,57.03
2022-11-28T21:24:10.179Z,56.85
2022-11-28T21:26:41.034Z,56.96
2022-11-28T21:29:10.820Z,56.63
2022-11-28T21:31:42.193Z,55.39
2022-11-28T21:34:14.698Z,52.12
2022-11-28T21:36:42.266Z,54.95
2022-11-28T21:39:14.032Z,55.71
2022-11-28T21:41:41.530Z,56.06
2022-11-28T21:44:09.302Z,56.22
2022-11-28T21:46:36.456Z,56.33
2022-11-28T21:49:03.839Z,56.48
2022-11-28T21:51:31.255Z,56.02
2022-11-28T21:53:59.140Z,56.30
2022-11-28T21:56:26.630Z,56.39
2022-11-28T21:58:54.094Z,56.35
2022-11-28T22:01:21.617Z,56.59
2022-11-28T22:03:49.621Z,56.72
2022-11-28T22:06:20.631Z,56.42
2022-11-28T22:08:49.092Z,56.08
2022-11-28T22:11:16.867Z,55.66
2022-11-28T22:13:48.188Z,55.68
2022-11-28T22:16:19.852Z,55.77
2022-11-28T22:18:48.612Z,55.84
2022-11-28T22:24:04.522Z,55.74
2022-11-28T22:26:31.596Z,55.94
2022-11-28T22:29:01.472Z,56.06
2022-11-28T22:31:29.060Z,56.10
2022-11-28T22:33:56.174Z,55.94
2022-11-28T22:36:24.330Z,56.12
2022-11-28T22:38:55.760Z,56.00
2022-11-28T22:41:28.965Z,56.43
2022-11-28T22:43:59.695Z,56.32
2022-11-28T22:46:27.769Z,56.64
2022-11-28T22:48:54.818Z,56.70
2022-11-28T22:51:24.324Z,56.54
2022-11-28T22:53:55.725Z,56.70
2022-11-28T22:56:23.114Z,56.89
2022-11-28T22:58:50.316Z,56.91
2022-11-28T23:01:26.923Z,56.86
2022-11-28T23:03:54.737Z,57.18
2022-11-28T23:06:31.380Z,57.23
2022-11-28T23:09:00.318Z,57.31
2022-11-28T23:11:30.565Z,57.34
2022-11-28T23:13:57.559Z,57.69
2022-11-28T23:16:30.337Z,57.54
2022-11-28T23:18:59.736Z,57.70
2022-11-28T23:21:30.749Z,57.86
2022-11-28T23:23:57.890Z,57.80
2022-11-28T23:26:26.476Z,57.64
2022-11-28T23:28:54.303Z,57.83
2022-11-28T23:31:24.201Z,58.20
2022-11-28T23:33:51.758Z,58.18
2022-11-28T23:36:24.500Z,58.28
2022-11-28T23:38:54.319Z,58.15
2022-11-28T23:41:21.525Z,58.58
2022-11-28T23:43:48.586Z,58.60
2022-11-28T23:46:17.091Z,58.45
2022-11-28T23:48:44.898Z,58.67
2022-11-28T23:51:15.297Z,58.38
2022-11-28T23:53:43.028Z,58.80
2022-11-28T23:56:16.105Z,58.89
2022-11-28T23:58:43.349Z,58.81
